Kezdőlap
METAR-TAF:

METAR-TAF

Repülőterek :

Wittmund, Németország

földrajzi szélesség: 53-33N, földrajzi hosszúság: 007-40E, magasság: 8 m

Jelenlegi meteorológiai megfigyelések

A jelentés 28 perccel ezelõtt készült, 13:20 UTC
Északi szél 8 kt
Hőmérséklet 17°C
Páratartalom 63%
Légköri nyomás 1020 hPa
Látótávolság 10 km, vagy több
Szórványos felhőzet 2800 lábon

METAR: ETNT 191320Z 35008KT 9999 SCT028 17/10 Q1020 BLACKBLU+

Idő: 15:48 (13:48 UTC)


TAF: hiányzik

Meteorológiai megfigyelések és előrejelzések több, mint 4000 repülőtéren (METAR és TAF jelentéseket).

A térképen piros és sárga pontok jelzik az elérhető meteorológiai állomásokat.

Mozgassa az egeret a pont fölött, hogy megjelenjen az állomás neve.

Azután kattintson az időjárási megfigyelések és előrejelzések megtekintéséhez.

A térkép megváltoztatása: kattintson a fekete keresztel jelölt zöld gombra ráközelítéshez, a vonallal jelölt zöld gombra távolításhoz, vagy a zöld nyilakra a szomszédos térképek eléréséhez.


METAR-TAF: